DAL135 KLAX-KBOS
Flight info
| Callsign | DAL135 |
|---|---|
| Flight time | N/A |
| Altitude | 31000 |
| Route | DOTSS2 CLEEE PKE J96 CIM/N0457F330 SLN IRK JOT J146 GIJ J554 CRL/N0452F350 J554 JHW Q82 PONCT JFUND2 |
| Aircraft | A321/M-SDE3FGHIRWY/LB1 |
Departure
| Time | 2026-04-22 20:15 |
|---|---|
| Airport | Los Angeles International Airport (KLAX) |
Arrival
| Time | N/A |
|---|---|
| Airport | Boston Logan International Airport (KBOS) |
| Time | Latitude | Longitude | Altitude | Speed | Heading |
|---|---|---|---|---|---|
| 2026-04-22 20:15 | 33.94396 | -118.46292 | 1382 ft | 185 kts | 262° |
| 2026-04-22 20:15 | 33.94194 | -118.47817 | 1858 ft | 186 kts | 268° |
| 2026-04-22 20:15 | 33.94134 | -118.49429 | 2007 ft | 200 kts | 271° |
| 2026-04-22 20:15 | 33.94109 | -118.51163 | 2142 ft | 214 kts | 270° |
| 2026-04-22 20:16 | 33.94025 | -118.53011 | 2276 ft | 229 kts | 268° |
| 2026-04-22 20:16 | 33.93898 | -118.55010 | 2397 ft | 250 kts | 267° |
| 2026-04-22 20:16 | 33.93742 | -118.57145 | 2822 ft | 259 kts | 267° |
| 2026-04-22 20:16 | 33.93574 | -118.59317 | 3407 ft | 262 kts | 267° |
| 2026-04-22 20:17 | 33.93180 | -118.61467 | 3975 ft | 268 kts | 246° |
| 2026-04-22 20:17 | 33.92026 | -118.63211 | 4514 ft | 276 kts | 217° |
| 2026-04-22 20:17 | 33.90249 | -118.64111 | 5041 ft | 283 kts | 187° |
| 2026-04-22 20:17 | 33.88269 | -118.64082 | 5576 ft | 287 kts | 176° |
| 2026-04-22 20:18 | 33.86261 | -118.63924 | 6130 ft | 290 kts | 176° |
| 2026-04-22 20:18 | 33.84274 | -118.63470 | 6657 ft | 293 kts | 160° |
| 2026-04-22 20:18 | 33.82435 | -118.62418 | 7179 ft | 294 kts | 145° |
| 2026-04-22 20:18 | 33.80737 | -118.61021 | 7705 ft | 297 kts | 144° |
| 2026-04-22 20:19 | 33.79019 | -118.59616 | 8221 ft | 300 kts | 144° |
| 2026-04-22 20:19 | 33.77276 | -118.58203 | 8716 ft | 303 kts | 145° |
| 2026-04-22 20:19 | 33.75544 | -118.56800 | 9194 ft | 306 kts | 146° |
| 2026-04-22 20:19 | 33.73770 | -118.55361 | 9676 ft | 309 kts | 146° |
| 2026-04-22 20:20 | 33.72005 | -118.53822 | 9944 ft | 320 kts | 138° |
| 2026-04-22 20:20 | 33.70438 | -118.51834 | 10084 ft | 335 kts | 127° |
| 2026-04-22 20:20 | 33.69138 | -118.49439 | 10210 ft | 349 kts | 117° |
| 2026-04-22 20:20 | 33.68145 | -118.46720 | 10341 ft | 362 kts | 108° |
| 2026-04-22 20:21 | 33.67299 | -118.43813 | 10469 ft | 375 kts | 108° |
| 2026-04-22 20:21 | 33.66411 | -118.40807 | 10601 ft | 388 kts | 109° |
| 2026-04-22 20:21 | 33.65504 | -118.37767 | 10893 ft | 394 kts | 109° |
| 2026-04-22 20:21 | 33.64742 | -118.34602 | 11274 ft | 397 kts | 100° |
| 2026-04-22 20:22 | 33.64440 | -118.31301 | 11660 ft | 399 kts | 89° |
| 2026-04-22 20:22 | 33.64447 | -118.27954 | 12038 ft | 402 kts | 89° |
| 2026-04-22 20:22 | 33.64460 | -118.24589 | 12418 ft | 405 kts | 89° |
| 2026-04-22 20:22 | 33.64471 | -118.21194 | 12790 ft | 408 kts | 89° |
| 2026-04-22 20:23 | 33.64477 | -118.17767 | 13160 ft | 411 kts | 90° |
| 2026-04-22 20:23 | 33.64480 | -118.14327 | 13527 ft | 413 kts | 90° |
| 2026-04-22 20:23 | 33.64478 | -118.10857 | 13896 ft | 416 kts | 91° |
| 2026-04-22 20:23 | 33.64472 | -118.07372 | 14261 ft | 418 kts | 91° |
| 2026-04-22 20:24 | 33.64464 | -118.03917 | 14601 ft | 419 kts | 91° |
| 2026-04-22 20:24 | 33.64455 | -118.00399 | 14942 ft | 421 kts | 92° |
| 2026-04-22 20:24 | 33.64447 | -117.96879 | 15272 ft | 422 kts | 92° |
| 2026-04-22 20:24 | 33.64441 | -117.93350 | 15591 ft | 423 kts | 92° |
| 2026-04-22 20:25 | 33.64434 | -117.89815 | 15903 ft | 425 kts | 92° |
| 2026-04-22 20:25 | 33.64424 | -117.86260 | 16225 ft | 425 kts | 93° |
| 2026-04-22 20:25 | 33.64412 | -117.82707 | 16542 ft | 426 kts | 93° |
| 2026-04-22 20:25 | 33.64556 | -117.79186 | 16827 ft | 430 kts | 85° |
| 2026-04-22 20:26 | 33.65165 | -117.75585 | 17117 ft | 433 kts | 79° |
| 2026-04-22 20:26 | 33.65844 | -117.72137 | 17426 ft | 433 kts | 79° |
| 2026-04-22 20:26 | 33.66529 | -117.68613 | 17721 ft | 434 kts | 79° |
| 2026-04-22 20:26 | 33.67208 | -117.65073 | 17987 ft | 436 kts | 79° |
| 2026-04-22 20:27 | 33.67887 | -117.61514 | 18242 ft | 438 kts | 79° |
| 2026-04-22 20:27 | 33.68569 | -117.57935 | 18484 ft | 441 kts | 79° |
| 2026-04-22 20:27 | 33.69259 | -117.54316 | 18633 ft | 446 kts | 78° |
| 2026-04-22 20:27 | 33.69958 | -117.50665 | 18817 ft | 450 kts | 78° |
| 2026-04-22 20:28 | 33.70666 | -117.46988 | 19034 ft | 453 kts | 78° |
| 2026-04-22 20:28 | 33.71375 | -117.43299 | 19337 ft | 452 kts | 79° |
| 2026-04-22 20:28 | 33.72064 | -117.39682 | 19844 ft | 447 kts | 81° |
| 2026-04-22 20:28 | 33.72754 | -117.36052 | 20275 ft | 444 kts | 81° |
| 2026-04-22 20:29 | 33.73439 | -117.32431 | 20571 ft | 446 kts | 81° |
| 2026-04-22 20:29 | 33.74125 | -117.28792 | 20859 ft | 446 kts | 81° |
| 2026-04-22 20:29 | 33.74793 | -117.25164 | 21212 ft | 443 kts | 84° |
| 2026-04-22 20:29 | 33.75102 | -117.21508 | 21571 ft | 436 kts | 93° |
| 2026-04-22 20:30 | 33.75034 | -117.17875 | 21897 ft | 434 kts | 95° |
| 2026-04-22 20:30 | 33.74950 | -117.14249 | 22195 ft | 434 kts | 95° |
| 2026-04-22 20:30 | 33.74874 | -117.10616 | 22461 ft | 434 kts | 95° |
| 2026-04-22 20:30 | 33.74802 | -117.07027 | 22679 ft | 436 kts | 95° |
| 2026-04-22 20:31 | 33.74729 | -117.03385 | 22998 ft | 435 kts | 95° |
| 2026-04-22 20:31 | 33.74657 | -116.99750 | 23316 ft | 433 kts | 94° |
| 2026-04-22 20:31 | 33.74584 | -116.96128 | 23589 ft | 433 kts | 94° |
| 2026-04-22 20:31 | 33.74507 | -116.92505 | 23837 ft | 433 kts | 94° |
| 2026-04-22 20:32 | 33.74428 | -116.88927 | 24064 ft | 434 kts | 94° |
| 2026-04-22 20:32 | 33.74348 | -116.85292 | 24285 ft | 435 kts | 94° |